sensor_id;sensor_type;location;lat;lon;timestamp;P1;durP1;ratioP1;P2;durP2;ratioP2
27847;SDS011;15212;48.830;8.730;2024-03-02T00:01:07;16.57;;;8.80;;
27847;SDS011;15212;48.830;8.730;2024-03-02T00:03:37;17.67;;;9.40;;
27847;SDS011;15212;48.830;8.730;2024-03-02T00:06:06;17.00;;;9.13;;
27847;SDS011;15212;48.830;8.730;2024-03-02T00:08:35;16.55;;;9.80;;
27847;SDS011;15212;48.830;8.730;2024-03-02T00:11:03;17.40;;;9.75;;
27847;SDS011;15212;48.830;8.730;2024-03-02T00:13:32;19.30;;;10.18;;
27847;SDS011;15212;48.830;8.730;2024-03-02T00:16:01;15.70;;;9.40;;
27847;SDS011;15212;48.830;8.730;2024-03-02T00:18:32;16.85;;;9.68;;
27847;SDS011;15212;48.830;8.730;2024-03-02T00:21:02;16.50;;;9.08;;
27847;SDS011;15212;48.830;8.730;2024-03-02T00:23:34;17.32;;;9.13;;
27847;SDS011;15212;48.830;8.730;2024-03-02T00:26:04;16.37;;;9.23;;
27847;SDS011;15212;48.830;8.730;2024-03-02T00:28:34;16.35;;;9.60;;
27847;SDS011;15212;48.830;8.730;2024-03-02T00:31:05;15.88;;;9.38;;
27847;SDS011;15212;48.830;8.730;2024-03-02T00:33:39;13.50;;;8.60;;
27847;SDS011;15212;48.830;8.730;2024-03-02T00:36:12;14.78;;;9.13;;
27847;SDS011;15212;48.830;8.730;2024-03-02T00:38:46;16.87;;;9.58;;
27847;SDS011;15212;48.830;8.730;2024-03-02T00:41:28;14.98;;;8.58;;
27847;SDS011;15212;48.830;8.730;2024-03-02T00:43:58;15.80;;;9.13;;
27847;SDS011;15212;48.830;8.730;2024-03-02T00:46:34;17.35;;;9.35;;
27847;SDS011;15212;48.830;8.730;2024-03-02T00:51:49;16.48;;;9.20;;
27847;SDS011;15212;48.830;8.730;2024-03-02T00:54:25;16.45;;;9.63;;
27847;SDS011;15212;48.830;8.730;2024-03-02T00:56:55;19.30;;;8.95;;
27847;SDS011;15212;48.830;8.730;2024-03-02T00:59:24;16.70;;;9.20;;
27847;SDS011;15212;48.830;8.730;2024-03-02T01:01:53;14.23;;;9.15;;
27847;SDS011;15212;48.830;8.730;2024-03-02T01:04:21;17.57;;;9.23;;
27847;SDS011;15212;48.830;8.730;2024-03-02T01:06:49;18.65;;;8.83;;
27847;SDS011;15212;48.830;8.730;2024-03-02T01:09:18;17.37;;;9.60;;
27847;SDS011;15212;48.830;8.730;2024-03-02T01:11:46;17.35;;;9.48;;
27847;SDS011;15212;48.830;8.730;2024-03-02T01:14:15;18.62;;;9.73;;
27847;SDS011;15212;48.830;8.730;2024-03-02T01:16:43;19.10;;;9.75;;
27847;SDS011;15212;48.830;8.730;2024-03-02T01:19:12;18.60;;;10.00;;
27847;SDS011;15212;48.830;8.730;2024-03-02T01:21:41;18.37;;;9.58;;
27847;SDS011;15212;48.830;8.730;2024-03-02T01:24:09;18.45;;;9.95;;
27847;SDS011;15212;48.830;8.730;2024-03-02T01:26:39;18.17;;;10.00;;
27847;SDS011;15212;48.830;8.730;2024-03-02T01:29:07;20.20;;;9.80;;
27847;SDS011;15212;48.830;8.730;2024-03-02T01:31:35;17.00;;;9.30;;
27847;SDS011;15212;48.830;8.730;2024-03-02T01:34:05;19.30;;;10.53;;
27847;SDS011;15212;48.830;8.730;2024-03-02T01:36:34;20.97;;;10.60;;
27847;SDS011;15212;48.830;8.730;2024-03-02T01:39:02;18.73;;;10.05;;
27847;SDS011;15212;48.830;8.730;2024-03-02T01:41:32;20.60;;;11.10;;
27847;SDS011;15212;48.830;8.730;2024-03-02T01:44:01;20.23;;;9.73;;
27847;SDS011;15212;48.830;8.730;2024-03-02T01:46:29;17.23;;;10.63;;
27847;SDS011;15212;48.830;8.730;2024-03-02T01:48:57;19.12;;;10.15;;
27847;SDS011;15212;48.830;8.730;2024-03-02T01:51:26;20.00;;;10.65;;
27847;SDS011;15212;48.830;8.730;2024-03-02T01:53:54;20.27;;;10.78;;
27847;SDS011;15212;48.830;8.730;2024-03-02T01:56:23;16.62;;;9.58;;
27847;SDS011;15212;48.830;8.730;2024-03-02T01:58:51;17.23;;;9.75;;
27847;SDS011;15212;48.830;8.730;2024-03-02T02:01:20;17.15;;;9.80;;
27847;SDS011;15212;48.830;8.730;2024-03-02T02:03:48;19.07;;;10.30;;
27847;SDS011;15212;48.830;8.730;2024-03-02T02:06:16;18.52;;;9.78;;
27847;SDS011;15212;48.830;8.730;2024-03-02T02:08:45;16.82;;;9.73;;
27847;SDS011;15212;48.830;8.730;2024-03-02T02:11:16;18.07;;;9.68;;
27847;SDS011;15212;48.830;8.730;2024-03-02T02:13:45;18.05;;;9.95;;
27847;SDS011;15212;48.830;8.730;2024-03-02T02:16:13;18.95;;;9.85;;
27847;SDS011;15212;48.830;8.730;2024-03-02T02:18:42;21.23;;;9.33;;
27847;SDS011;15212;48.830;8.730;2024-03-02T02:21:10;17.65;;;10.20;;
27847;SDS011;15212;48.830;8.730;2024-03-02T02:23:39;16.32;;;9.13;;
27847;SDS011;15212;48.830;8.730;2024-03-02T02:26:09;17.95;;;10.43;;
27847;SDS011;15212;48.830;8.730;2024-03-02T02:28:37;19.42;;;10.08;;
27847;SDS011;15212;48.830;8.730;2024-03-02T02:31:07;18.82;;;10.40;;
27847;SDS011;15212;48.830;8.730;2024-03-02T02:33:38;20.05;;;10.23;;
27847;SDS011;15212;48.830;8.730;2024-03-02T02:36:07;19.45;;;10.68;;
27847;SDS011;15212;48.830;8.730;2024-03-02T02:38:40;21.57;;;10.72;;
27847;SDS011;15212;48.830;8.730;2024-03-02T02:41:11;18.82;;;10.43;;
27847;SDS011;15212;48.830;8.730;2024-03-02T02:43:39;19.50;;;10.20;;
27847;SDS011;15212;48.830;8.730;2024-03-02T02:46:07;19.10;;;10.03;;
27847;SDS011;15212;48.830;8.730;2024-03-02T02:48:36;18.32;;;10.08;;
27847;SDS011;15212;48.830;8.730;2024-03-02T02:51:04;17.17;;;9.35;;
27847;SDS011;15212;48.830;8.730;2024-03-02T02:53:33;19.52;;;10.15;;
27847;SDS011;15212;48.830;8.730;2024-03-02T02:56:01;20.37;;;10.70;;
27847;SDS011;15212;48.830;8.730;2024-03-02T02:58:30;17.55;;;9.78;;
27847;SDS011;15212;48.830;8.730;2024-03-02T03:00:58;19.73;;;10.32;;
27847;SDS011;15212;48.830;8.730;2024-03-02T03:03:26;18.90;;;10.15;;
27847;SDS011;15212;48.830;8.730;2024-03-02T03:05:55;16.95;;;9.23;;
27847;SDS011;15212;48.830;8.730;2024-03-02T03:08:23;18.50;;;9.90;;
27847;SDS011;15212;48.830;8.730;2024-03-02T03:10:52;18.07;;;9.95;;
27847;SDS011;15212;48.830;8.730;2024-03-02T03:13:20;17.35;;;9.45;;
27847;SDS011;15212;48.830;8.730;2024-03-02T03:15:48;19.20;;;9.75;;
27847;SDS011;15212;48.830;8.730;2024-03-02T03:18:17;16.02;;;8.63;;
27847;SDS011;15212;48.830;8.730;2024-03-02T03:20:45;17.05;;;9.28;;
27847;SDS011;15212;48.830;8.730;2024-03-02T03:23:13;15.28;;;8.88;;
27847;SDS011;15212;48.830;8.730;2024-03-02T03:25:43;17.42;;;8.43;;
27847;SDS011;15212;48.830;8.730;2024-03-02T03:28:11;16.05;;;9.35;;
27847;SDS011;15212;48.830;8.730;2024-03-02T03:30:40;16.70;;;8.50;;
27847;SDS011;15212;48.830;8.730;2024-03-02T03:33:08;16.57;;;9.73;;
27847;SDS011;15212;48.830;8.730;2024-03-02T03:35:37;17.50;;;9.13;;
27847;SDS011;15212;48.830;8.730;2024-03-02T03:38:05;17.32;;;9.20;;
27847;SDS011;15212;48.830;8.730;2024-03-02T03:40:34;21.15;;;8.75;;
27847;SDS011;15212;48.830;8.730;2024-03-02T03:43:02;17.12;;;9.20;;
27847;SDS011;15212;48.830;8.730;2024-03-02T03:45:31;16.82;;;8.58;;
27847;SDS011;15212;48.830;8.730;2024-03-02T03:48:00;17.23;;;8.30;;
27847;SDS011;15212;48.830;8.730;2024-03-02T03:50:29;19.32;;;8.85;;
27847;SDS011;15212;48.830;8.730;2024-03-02T03:52:57;17.75;;;9.23;;
27847;SDS011;15212;48.830;8.730;2024-03-02T03:55:26;18.73;;;9.98;;
27847;SDS011;15212;48.830;8.730;2024-03-02T03:57:54;19.60;;;9.90;;
27847;SDS011;15212;48.830;8.730;2024-03-02T04:00:22;18.82;;;9.98;;
27847;SDS011;15212;48.830;8.730;2024-03-02T04:02:51;17.95;;;9.48;;
27847;SDS011;15212;48.830;8.730;2024-03-02T04:05:19;19.50;;;9.78;;
27847;SDS011;15212;48.830;8.730;2024-03-02T04:07:48;21.17;;;10.40;;
27847;SDS011;15212;48.830;8.730;2024-03-02T04:10:16;18.17;;;9.50;;
27847;SDS011;15212;48.830;8.730;2024-03-02T04:12:46;18.50;;;9.88;;
27847;SDS011;15212;48.830;8.730;2024-03-02T04:15:16;22.42;;;10.23;;
27847;SDS011;15212;48.830;8.730;2024-03-02T04:17:45;17.87;;;10.28;;
27847;SDS011;15212;48.830;8.730;2024-03-02T04:20:14;17.20;;;10.23;;
27847;SDS011;15212;48.830;8.730;2024-03-02T04:22:42;22.17;;;11.15;;
27847;SDS011;15212;48.830;8.730;2024-03-02T04:25:10;21.12;;;10.48;;
27847;SDS011;15212;48.830;8.730;2024-03-02T04:27:39;18.73;;;10.65;;
27847;SDS011;15212;48.830;8.730;2024-03-02T04:30:08;18.73;;;10.50;;
27847;SDS011;15212;48.830;8.730;2024-03-02T04:32:37;19.95;;;10.40;;
27847;SDS011;15212;48.830;8.730;2024-03-02T04:35:06;20.75;;;11.68;;
27847;SDS011;15212;48.830;8.730;2024-03-02T04:37:36;19.20;;;10.18;;
27847;SDS011;15212;48.830;8.730;2024-03-02T04:40:04;19.42;;;11.05;;
27847;SDS011;15212;48.830;8.730;2024-03-02T04:42:36;18.75;;;10.45;;
27847;SDS011;15212;48.830;8.730;2024-03-02T04:45:05;21.07;;;10.80;;
27847;SDS011;15212;48.830;8.730;2024-03-02T04:47:34;19.55;;;10.63;;
27847;SDS011;15212;48.830;8.730;2024-03-02T04:50:03;24.50;;;10.85;;
27847;SDS011;15212;48.830;8.730;2024-03-02T04:52:33;22.82;;;10.70;;
27847;SDS011;15212;48.830;8.730;2024-03-02T04:55:02;22.70;;;12.40;;
27847;SDS011;15212;48.830;8.730;2024-03-02T04:57:38;21.73;;;11.18;;
27847;SDS011;15212;48.830;8.730;2024-03-02T05:00:07;27.13;;;11.68;;
27847;SDS011;15212;48.830;8.730;2024-03-02T05:02:36;20.60;;;10.78;;
27847;SDS011;15212;48.830;8.730;2024-03-02T05:05:04;18.07;;;10.70;;
27847;SDS011;15212;48.830;8.730;2024-03-02T05:07:33;18.70;;;9.65;;
27847;SDS011;15212;48.830;8.730;2024-03-02T05:10:01;19.52;;;10.58;;
27847;SDS011;15212;48.830;8.730;2024-03-02T05:12:30;23.10;;;11.38;;
27847;SDS011;15212;48.830;8.730;2024-03-02T05:15:03;22.20;;;11.03;;
27847;SDS011;15212;48.830;8.730;2024-03-02T05:17:33;22.27;;;11.65;;
27847;SDS011;15212;48.830;8.730;2024-03-02T05:20:02;22.70;;;11.73;;
27847;SDS011;15212;48.830;8.730;2024-03-02T05:22:33;20.40;;;10.50;;
27847;SDS011;15212;48.830;8.730;2024-03-02T05:25:03;22.80;;;11.70;;
27847;SDS011;15212;48.830;8.730;2024-03-02T05:27:32;22.45;;;11.45;;
27847;SDS011;15212;48.830;8.730;2024-03-02T05:30:00;21.50;;;11.10;;
27847;SDS011;15212;48.830;8.730;2024-03-02T05:32:31;22.67;;;10.53;;
27847;SDS011;15212;48.830;8.730;2024-03-02T05:35:00;18.35;;;10.13;;
27847;SDS011;15212;48.830;8.730;2024-03-02T05:37:28;17.42;;;9.50;;
27847;SDS011;15212;48.830;8.730;2024-03-02T05:39:57;16.00;;;8.88;;
27847;SDS011;15212;48.830;8.730;2024-03-02T05:42:25;18.20;;;8.93;;
27847;SDS011;15212;48.830;8.730;2024-03-02T05:44:53;15.38;;;7.85;;
27847;SDS011;15212;48.830;8.730;2024-03-02T05:47:22;16.60;;;8.98;;
27847;SDS011;15212;48.830;8.730;2024-03-02T05:49:50;17.27;;;8.93;;
27847;SDS011;15212;48.830;8.730;2024-03-02T05:52:19;14.15;;;8.15;;
27847;SDS011;15212;48.830;8.730;2024-03-02T05:54:47;18.45;;;8.83;;
27847;SDS011;15212;48.830;8.730;2024-03-02T05:57:15;14.75;;;8.33;;
27847;SDS011;15212;48.830;8.730;2024-03-02T05:59:45;16.75;;;9.00;;
27847;SDS011;15212;48.830;8.730;2024-03-02T06:02:14;15.55;;;9.08;;
27847;SDS011;15212;48.830;8.730;2024-03-02T06:04:42;13.50;;;8.40;;
27847;SDS011;15212;48.830;8.730;2024-03-02T06:07:10;16.62;;;8.68;;
27847;SDS011;15212;48.830;8.730;2024-03-02T06:09:39;17.48;;;9.03;;
27847;SDS011;15212;48.830;8.730;2024-03-02T06:12:10;16.60;;;9.53;;
27847;SDS011;15212;48.830;8.730;2024-03-02T06:14:38;15.83;;;9.15;;
27847;SDS011;15212;48.830;8.730;2024-03-02T06:17:07;18.35;;;8.88;;
27847;SDS011;15212;48.830;8.730;2024-03-02T06:19:35;16.97;;;9.10;;
27847;SDS011;15212;48.830;8.730;2024-03-02T06:22:04;16.45;;;8.95;;
27847;SDS011;15212;48.830;8.730;2024-03-02T06:24:32;14.40;;;7.92;;
27847;SDS011;15212;48.830;8.730;2024-03-02T06:27:00;15.25;;;8.23;;
27847;SDS011;15212;48.830;8.730;2024-03-02T06:29:29;14.25;;;8.00;;
27847;SDS011;15212;48.830;8.730;2024-03-02T06:32:01;17.12;;;8.28;;
27847;SDS011;15212;48.830;8.730;2024-03-02T06:34:30;14.58;;;7.92;;
27847;SDS011;15212;48.830;8.730;2024-03-02T06:36:58;13.53;;;7.47;;
27847;SDS011;15212;48.830;8.730;2024-03-02T06:39:27;15.35;;;7.25;;
27847;SDS011;15212;48.830;8.730;2024-03-02T06:41:57;13.80;;;7.60;;
27847;SDS011;15212;48.830;8.730;2024-03-02T06:44:25;13.43;;;6.70;;
27847;SDS011;15212;48.830;8.730;2024-03-02T06:46:54;14.75;;;7.40;;
27847;SDS011;15212;48.830;8.730;2024-03-02T06:49:22;11.73;;;6.75;;
27847;SDS011;15212;48.830;8.730;2024-03-02T06:51:51;14.18;;;7.62;;
27847;SDS011;15212;48.830;8.730;2024-03-02T06:54:19;13.13;;;7.08;;
27847;SDS011;15212;48.830;8.730;2024-03-02T06:56:47;12.40;;;7.30;;
27847;SDS011;15212;48.830;8.730;2024-03-02T06:59:16;10.58;;;6.85;;
27847;SDS011;15212;48.830;8.730;2024-03-02T07:01:44;12.20;;;7.05;;
27847;SDS011;15212;48.830;8.730;2024-03-02T07:04:12;10.48;;;6.15;;
27847;SDS011;15212;48.830;8.730;2024-03-02T07:06:47;10.80;;;6.10;;
27847;SDS011;15212;48.830;8.730;2024-03-02T07:09:26;13.05;;;6.35;;
27847;SDS011;15212;48.830;8.730;2024-03-02T07:11:54;13.03;;;6.30;;
27847;SDS011;15212;48.830;8.730;2024-03-02T07:14:23;12.07;;;7.03;;
27847;SDS011;15212;48.830;8.730;2024-03-02T07:16:53;12.05;;;6.30;;
27847;SDS011;15212;48.830;8.730;2024-03-02T07:19:21;11.75;;;6.45;;
27847;SDS011;15212;48.830;8.730;2024-03-02T07:21:49;13.75;;;7.30;;
27847;SDS011;15212;48.830;8.730;2024-03-02T07:24:18;12.68;;;6.72;;
27847;SDS011;15212;48.830;8.730;2024-03-02T07:26:46;12.58;;;7.00;;
27847;SDS011;15212;48.830;8.730;2024-03-02T07:29:14;12.18;;;6.22;;
27847;SDS011;15212;48.830;8.730;2024-03-02T07:31:43;14.05;;;7.20;;
27847;SDS011;15212;48.830;8.730;2024-03-02T07:34:11;12.58;;;6.75;;
27847;SDS011;15212;48.830;8.730;2024-03-02T07:36:40;12.43;;;6.92;;
27847;SDS011;15212;48.830;8.730;2024-03-02T07:39:08;12.50;;;7.45;;
27847;SDS011;15212;48.830;8.730;2024-03-02T07:41:37;14.25;;;7.80;;
27847;SDS011;15212;48.830;8.730;2024-03-02T07:44:05;13.43;;;7.65;;
27847;SDS011;15212;48.830;8.730;2024-03-02T07:46:34;13.85;;;7.65;;
27847;SDS011;15212;48.830;8.730;2024-03-02T07:49:02;13.83;;;6.75;;
27847;SDS011;15212;48.830;8.730;2024-03-02T07:51:31;10.32;;;6.37;;
27847;SDS011;15212;48.830;8.730;2024-03-02T07:53:59;16.02;;;7.25;;
27847;SDS011;15212;48.830;8.730;2024-03-02T07:56:28;13.05;;;7.75;;
27847;SDS011;15212;48.830;8.730;2024-03-02T07:58:56;14.20;;;7.55;;
27847;SDS011;15212;48.830;8.730;2024-03-02T08:01:27;12.90;;;6.75;;
27847;SDS011;15212;48.830;8.730;2024-03-02T08:04:00;12.50;;;7.08;;
27847;SDS011;15212;48.830;8.730;2024-03-02T08:06:29;11.93;;;6.72;;
27847;SDS011;15212;48.830;8.730;2024-03-02T08:08:58;13.30;;;6.75;;
27847;SDS011;15212;48.830;8.730;2024-03-02T08:11:29;10.65;;;6.65;;
27847;SDS011;15212;48.830;8.730;2024-03-02T08:13:58;10.40;;;6.22;;
27847;SDS011;15212;48.830;8.730;2024-03-02T08:16:26;10.53;;;6.25;;
27847;SDS011;15212;48.830;8.730;2024-03-02T08:18:54;9.55;;;6.10;;
27847;SDS011;15212;48.830;8.730;2024-03-02T08:21:25;9.98;;;5.67;;
27847;SDS011;15212;48.830;8.730;2024-03-02T08:23:56;12.37;;;5.60;;
27847;SDS011;15212;48.830;8.730;2024-03-02T08:26:25;8.58;;;5.30;;
27847;SDS011;15212;48.830;8.730;2024-03-02T08:28:55;9.83;;;5.58;;
27847;SDS011;15212;48.830;8.730;2024-03-02T08:31:24;8.18;;;4.90;;
27847;SDS011;15212;48.830;8.730;2024-03-02T08:33:52;10.00;;;4.62;;
27847;SDS011;15212;48.830;8.730;2024-03-02T08:36:22;7.83;;;4.80;;
27847;SDS011;15212;48.830;8.730;2024-03-02T08:38:51;6.42;;;3.98;;
27847;SDS011;15212;48.830;8.730;2024-03-02T08:41:19;7.40;;;4.20;;
27847;SDS011;15212;48.830;8.730;2024-03-02T08:43:48;7.60;;;3.67;;
27847;SDS011;15212;48.830;8.730;2024-03-02T08:46:16;7.25;;;4.20;;
27847;SDS011;15212;48.830;8.730;2024-03-02T08:48:45;5.45;;;3.58;;
27847;SDS011;15212;48.830;8.730;2024-03-02T08:51:13;6.80;;;4.35;;
27847;SDS011;15212;48.830;8.730;2024-03-02T08:53:42;10.68;;;4.15;;
27847;SDS011;15212;48.830;8.730;2024-03-02T08:56:10;35.63;;;5.42;;
27847;SDS011;15212;48.830;8.730;2024-03-02T08:58:39;7.83;;;4.25;;
27847;SDS011;15212;48.830;8.730;2024-03-02T09:01:07;6.15;;;4.08;;
27847;SDS011;15212;48.830;8.730;2024-03-02T09:03:36;6.67;;;4.28;;
27847;SDS011;15212;48.830;8.730;2024-03-02T09:06:05;7.17;;;4.55;;
27847;SDS011;15212;48.830;8.730;2024-03-02T09:08:33;8.30;;;4.53;;
27847;SDS011;15212;48.830;8.730;2024-03-02T09:11:02;7.78;;;4.47;;
27847;SDS011;15212;48.830;8.730;2024-03-02T09:13:33;8.40;;;5.25;;
27847;SDS011;15212;48.830;8.730;2024-03-02T09:16:02;11.40;;;5.22;;
27847;SDS011;15212;48.830;8.730;2024-03-02T09:18:31;8.50;;;5.00;;
27847;SDS011;15212;48.830;8.730;2024-03-02T09:20:59;7.25;;;4.37;;
27847;SDS011;15212;48.830;8.730;2024-03-02T09:23:28;8.28;;;4.53;;
27847;SDS011;15212;48.830;8.730;2024-03-02T09:25:56;6.97;;;4.65;;
27847;SDS011;15212;48.830;8.730;2024-03-02T09:28:24;8.83;;;4.50;;
27847;SDS011;15212;48.830;8.730;2024-03-02T09:30:53;6.92;;;4.37;;
27847;SDS011;15212;48.830;8.730;2024-03-02T09:33:22;10.32;;;5.15;;
27847;SDS011;15212;48.830;8.730;2024-03-02T09:35:50;7.25;;;4.45;;
27847;SDS011;15212;48.830;8.730;2024-03-02T09:38:18;6.53;;;4.22;;
27847;SDS011;15212;48.830;8.730;2024-03-02T09:40:47;6.45;;;4.42;;
27847;SDS011;15212;48.830;8.730;2024-03-02T09:43:16;6.75;;;4.35;;
27847;SDS011;15212;48.830;8.730;2024-03-02T09:45:45;8.73;;;4.40;;
27847;SDS011;15212;48.830;8.730;2024-03-02T09:48:14;6.97;;;4.47;;
27847;SDS011;15212;48.830;8.730;2024-03-02T09:50:44;7.50;;;4.45;;
27847;SDS011;15212;48.830;8.730;2024-03-02T09:53:12;7.78;;;4.42;;
27847;SDS011;15212;48.830;8.730;2024-03-02T09:55:45;7.62;;;4.58;;
27847;SDS011;15212;48.830;8.730;2024-03-02T09:58:15;7.33;;;3.98;;
27847;SDS011;15212;48.830;8.730;2024-03-02T10:00:43;5.65;;;3.87;;
27847;SDS011;15212;48.830;8.730;2024-03-02T10:03:13;6.30;;;4.03;;
27847;SDS011;15212;48.830;8.730;2024-03-02T10:05:42;7.83;;;4.03;;
27847;SDS011;15212;48.830;8.730;2024-03-02T10:08:10;5.83;;;3.90;;
27847;SDS011;15212;48.830;8.730;2024-03-02T10:10:39;6.10;;;3.92;;
27847;SDS011;15212;48.830;8.730;2024-03-02T10:13:11;7.50;;;3.95;;
27847;SDS011;15212;48.830;8.730;2024-03-02T10:15:40;4.67;;;2.87;;
27847;SDS011;15212;48.830;8.730;2024-03-02T10:18:09;5.75;;;3.40;;
27847;SDS011;15212;48.830;8.730;2024-03-02T10:20:41;6.40;;;3.25;;
27847;SDS011;15212;48.830;8.730;2024-03-02T10:23:13;7.10;;;3.27;;
27847;SDS011;15212;48.830;8.730;2024-03-02T10:25:43;3.62;;;2.25;;
27847;SDS011;15212;48.830;8.730;2024-03-02T10:28:12;4.67;;;2.85;;
27847;SDS011;15212;48.830;8.730;2024-03-02T10:30:40;4.67;;;2.85;;
27847;SDS011;15212;48.830;8.730;2024-03-02T10:33:09;3.98;;;2.47;;
27847;SDS011;15212;48.830;8.730;2024-03-02T10:35:37;4.33;;;2.55;;
27847;SDS011;15212;48.830;8.730;2024-03-02T10:38:06;3.70;;;2.50;;
27847;SDS011;15212;48.830;8.730;2024-03-02T10:40:35;3.25;;;2.20;;
27847;SDS011;15212;48.830;8.730;2024-03-02T10:43:03;3.22;;;1.82;;
27847;SDS011;15212;48.830;8.730;2024-03-02T10:45:33;3.05;;;1.67;;
27847;SDS011;15212;48.830;8.730;2024-03-02T10:48:02;4.58;;;1.35;;
27847;SDS011;15212;48.830;8.730;2024-03-02T10:50:31;13.65;;;2.45;;
27847;SDS011;15212;48.830;8.730;2024-03-02T10:52:59;3.08;;;1.70;;
27847;SDS011;15212;48.830;8.730;2024-03-02T10:55:28;3.05;;;1.50;;
27847;SDS011;15212;48.830;8.730;2024-03-02T10:57:56;1.57;;;1.00;;
27847;SDS011;15212;48.830;8.730;2024-03-02T11:00:30;2.42;;;1.32;;
27847;SDS011;15212;48.830;8.730;2024-03-02T11:03:07;4.10;;;1.40;;
27847;SDS011;15212;48.830;8.730;2024-03-02T11:08:08;1.82;;;1.02;;
27847;SDS011;15212;48.830;8.730;2024-03-02T11:10:41;1.42;;;0.95;;
27847;SDS011;15212;48.830;8.730;2024-03-02T11:13:30;2.17;;;1.12;;
27847;SDS011;15212;48.830;8.730;2024-03-02T11:15:56;1.75;;;1.10;;
27847;SDS011;15212;48.830;8.730;2024-03-02T11:20:59;2.52;;;1.45;;
27847;SDS011;15212;48.830;8.730;2024-03-02T11:23:32;1.45;;;1.10;;
27847;SDS011;15212;48.830;8.730;2024-03-02T11:26:17;2.75;;;1.60;;
27847;SDS011;15212;48.830;8.730;2024-03-02T11:28:50;1.62;;;1.00;;
27847;SDS011;15212;48.830;8.730;2024-03-02T11:31:18;1.62;;;1.00;;
27847;SDS011;15212;48.830;8.730;2024-03-02T11:33:47;0.95;;;0.80;;
27847;SDS011;15212;48.830;8.730;2024-03-02T11:36:15;1.70;;;0.98;;
27847;SDS011;15212;48.830;8.730;2024-03-02T11:38:44;1.72;;;1.17;;
27847;SDS011;15212;48.830;8.730;2024-03-02T11:41:14;2.40;;;1.27;;
27847;SDS011;15212;48.830;8.730;2024-03-02T11:43:42;1.90;;;1.30;;
27847;SDS011;15212;48.830;8.730;2024-03-02T11:46:11;2.47;;;1.40;;
27847;SDS011;15212;48.830;8.730;2024-03-02T11:48:39;2.35;;;1.60;;
27847;SDS011;15212;48.830;8.730;2024-03-02T11:51:08;3.05;;;1.62;;
27847;SDS011;15212;48.830;8.730;2024-03-02T11:53:38;2.42;;;1.50;;
27847;SDS011;15212;48.830;8.730;2024-03-02T11:56:07;4.05;;;1.52;;
27847;SDS011;15212;48.830;8.730;2024-03-02T11:58:38;3.85;;;1.67;;
27847;SDS011;15212;48.830;8.730;2024-03-02T12:01:07;2.80;;;1.67;;
27847;SDS011;15212;48.830;8.730;2024-03-02T12:03:39;1.92;;;1.42;;
27847;SDS011;15212;48.830;8.730;2024-03-02T12:06:07;3.15;;;2.00;;
27847;SDS011;15212;48.830;8.730;2024-03-02T12:08:36;2.90;;;1.87;;
27847;SDS011;15212;48.830;8.730;2024-03-02T12:11:04;2.35;;;1.80;;
27847;SDS011;15212;48.830;8.730;2024-03-02T12:13:32;3.77;;;2.10;;
27847;SDS011;15212;48.830;8.730;2024-03-02T12:16:01;3.30;;;1.70;;
27847;SDS011;15212;48.830;8.730;2024-03-02T12:18:29;2.30;;;1.60;;
27847;SDS011;15212;48.830;8.730;2024-03-02T12:20:58;1.87;;;1.50;;
27847;SDS011;15212;48.830;8.730;2024-03-02T12:23:28;2.70;;;1.50;;
27847;SDS011;15212;48.830;8.730;2024-03-02T12:25:56;3.33;;;1.80;;
27847;SDS011;15212;48.830;8.730;2024-03-02T12:28:25;3.45;;;1.90;;
27847;SDS011;15212;48.830;8.730;2024-03-02T12:30:53;3.30;;;2.00;;
27847;SDS011;15212;48.830;8.730;2024-03-02T12:33:22;2.95;;;1.92;;
27847;SDS011;15212;48.830;8.730;2024-03-02T12:35:50;2.95;;;1.72;;
27847;SDS011;15212;48.830;8.730;2024-03-02T12:38:19;2.90;;;1.80;;
27847;SDS011;15212;48.830;8.730;2024-03-02T12:40:49;4.90;;;1.70;;
27847;SDS011;15212;48.830;8.730;2024-03-02T12:43:19;3.47;;;1.95;;
27847;SDS011;15212;48.830;8.730;2024-03-02T12:45:49;4.58;;;1.98;;
27847;SDS011;15212;48.830;8.730;2024-03-02T12:48:17;3.95;;;1.92;;
27847;SDS011;15212;48.830;8.730;2024-03-02T12:50:46;2.75;;;1.80;;
27847;SDS011;15212;48.830;8.730;2024-03-02T12:53:15;3.17;;;1.57;;
27847;SDS011;15212;48.830;8.730;2024-03-02T12:55:43;3.00;;;1.90;;
27847;SDS011;15212;48.830;8.730;2024-03-02T12:58:19;3.22;;;1.80;;
27847;SDS011;15212;48.830;8.730;2024-03-02T13:00:48;2.40;;;1.70;;
27847;SDS011;15212;48.830;8.730;2024-03-02T13:03:17;2.60;;;1.80;;
27847;SDS011;15212;48.830;8.730;2024-03-02T13:05:48;3.08;;;1.60;;
27847;SDS011;15212;48.830;8.730;2024-03-02T13:08:17;3.45;;;1.70;;
27847;SDS011;15212;48.830;8.730;2024-03-02T13:10:46;3.77;;;1.67;;
27847;SDS011;15212;48.830;8.730;2024-03-02T13:13:14;2.22;;;1.52;;
27847;SDS011;15212;48.830;8.730;2024-03-02T13:15:43;1.77;;;1.10;;
27847;SDS011;15212;48.830;8.730;2024-03-02T13:18:12;1.40;;;1.10;;
27847;SDS011;15212;48.830;8.730;2024-03-02T13:20:40;2.47;;;1.27;;
27847;SDS011;15212;48.830;8.730;2024-03-02T13:23:08;2.30;;;1.50;;
27847;SDS011;15212;48.830;8.730;2024-03-02T13:25:37;4.05;;;1.60;;
27847;SDS011;15212;48.830;8.730;2024-03-02T13:28:05;3.08;;;1.35;;
27847;SDS011;15212;48.830;8.730;2024-03-02T13:30:34;2.75;;;1.75;;
27847;SDS011;15212;48.830;8.730;2024-03-02T13:33:03;2.05;;;1.35;;
27847;SDS011;15212;48.830;8.730;2024-03-02T13:35:31;2.55;;;1.42;;
27847;SDS011;15212;48.830;8.730;2024-03-02T13:38:00;4.97;;;1.50;;
27847;SDS011;15212;48.830;8.730;2024-03-02T13:40:28;2.60;;;1.55;;
27847;SDS011;15212;48.830;8.730;2024-03-02T13:42:58;2.80;;;1.87;;
27847;SDS011;15212;48.830;8.730;2024-03-02T13:45:27;2.20;;;1.60;;
27847;SDS011;15212;48.830;8.730;2024-03-02T13:47:55;3.65;;;1.50;;
27847;SDS011;15212;48.830;8.730;2024-03-02T13:50:24;3.45;;;1.57;;
27847;SDS011;15212;48.830;8.730;2024-03-02T13:52:52;2.27;;;1.65;;
27847;SDS011;15212;48.830;8.730;2024-03-02T13:55:20;2.15;;;1.60;;
27847;SDS011;15212;48.830;8.730;2024-03-02T13:57:49;2.87;;;1.62;;
27847;SDS011;15212;48.830;8.730;2024-03-02T14:00:18;3.17;;;1.60;;
27847;SDS011;15212;48.830;8.730;2024-03-02T14:02:47;2.20;;;1.35;;
27847;SDS011;15212;48.830;8.730;2024-03-02T14:05:16;2.33;;;1.50;;
27847;SDS011;15212;48.830;8.730;2024-03-02T14:07:45;3.10;;;1.55;;
27847;SDS011;15212;48.830;8.730;2024-03-02T14:10:13;2.30;;;1.42;;
27847;SDS011;15212;48.830;8.730;2024-03-02T14:12:42;2.62;;;1.77;;
27847;SDS011;15212;48.830;8.730;2024-03-02T14:15:10;3.72;;;2.10;;
27847;SDS011;15212;48.830;8.730;2024-03-02T14:17:39;2.60;;;1.85;;
27847;SDS011;15212;48.830;8.730;2024-03-02T14:20:08;4.47;;;2.02;;
27847;SDS011;15212;48.830;8.730;2024-03-02T14:22:39;2.67;;;1.72;;
27847;SDS011;15212;48.830;8.730;2024-03-02T14:25:08;2.45;;;1.65;;
27847;SDS011;15212;48.830;8.730;2024-03-02T14:27:36;2.85;;;1.67;;
27847;SDS011;15212;48.830;8.730;2024-03-02T14:30:05;3.10;;;1.80;;
27847;SDS011;15212;48.830;8.730;2024-03-02T14:32:35;3.85;;;1.50;;
27847;SDS011;15212;48.830;8.730;2024-03-02T14:35:03;3.62;;;1.80;;
27847;SDS011;15212;48.830;8.730;2024-03-02T14:37:34;2.58;;;1.50;;
27847;SDS011;15212;48.830;8.730;2024-03-02T14:40:03;3.72;;;2.02;;
27847;SDS011;15212;48.830;8.730;2024-03-02T14:42:34;2.95;;;1.67;;
27847;SDS011;15212;48.830;8.730;2024-03-02T14:45:03;3.47;;;1.82;;
27847;SDS011;15212;48.830;8.730;2024-03-02T14:47:32;3.25;;;1.80;;
27847;SDS011;15212;48.830;8.730;2024-03-02T14:50:01;2.75;;;1.62;;
27847;SDS011;15212;48.830;8.730;2024-03-02T14:52:32;2.37;;;1.50;;
27847;SDS011;15212;48.830;8.730;2024-03-02T14:55:01;2.80;;;1.42;;
27847;SDS011;15212;48.830;8.730;2024-03-02T14:57:32;2.30;;;1.60;;